sensor_id;sensor_type;location;lat;lon;timestamp;P1;durP1;ratioP1;P2;durP2;ratioP2
52102;SDS011;38101;53.126;6.878;2023-03-11T00:00:22;5.07;;;1.80;;
52102;SDS011;38101;53.126;6.878;2023-03-11T00:02:51;6.53;;;2.30;;
52102;SDS011;38101;53.126;6.878;2023-03-11T00:05:22;4.63;;;1.92;;
52102;SDS011;38101;53.126;6.878;2023-03-11T00:07:50;7.43;;;2.50;;
52102;SDS011;38101;53.126;6.878;2023-03-11T00:10:18;11.15;;;2.53;;
52102;SDS011;38101;53.126;6.878;2023-03-11T00:12:45;5.65;;;2.58;;
52102;SDS011;38101;53.126;6.878;2023-03-11T00:15:11;5.95;;;2.10;;
52102;SDS011;38101;53.126;6.878;2023-03-11T00:17:38;5.55;;;2.05;;
52102;SDS011;38101;53.126;6.878;2023-03-11T00:20:05;5.80;;;1.95;;
52102;SDS011;38101;53.126;6.878;2023-03-11T00:22:32;6.35;;;2.22;;
52102;SDS011;38101;53.126;6.878;2023-03-11T00:24:58;6.13;;;2.30;;
52102;SDS011;38101;53.126;6.878;2023-03-11T00:27:24;6.40;;;2.05;;
52102;SDS011;38101;53.126;6.878;2023-03-11T00:29:49;5.40;;;2.13;;
52102;SDS011;38101;53.126;6.878;2023-03-11T00:32:15;5.80;;;2.10;;
52102;SDS011;38101;53.126;6.878;2023-03-11T00:34:41;6.53;;;2.08;;
52102;SDS011;38101;53.126;6.878;2023-03-11T00:37:07;4.47;;;1.75;;
52102;SDS011;38101;53.126;6.878;2023-03-11T00:39:33;5.20;;;1.85;;
52102;SDS011;38101;53.126;6.878;2023-03-11T00:41:59;8.38;;;2.15;;
52102;SDS011;38101;53.126;6.878;2023-03-11T00:44:24;7.05;;;1.90;;
52102;SDS011;38101;53.126;6.878;2023-03-11T00:46:50;4.72;;;1.88;;
52102;SDS011;38101;53.126;6.878;2023-03-11T00:49:16;5.18;;;2.15;;
52102;SDS011;38101;53.126;6.878;2023-03-11T00:51:42;5.97;;;1.90;;
52102;SDS011;38101;53.126;6.878;2023-03-11T00:54:08;5.65;;;1.80;;
52102;SDS011;38101;53.126;6.878;2023-03-11T00:56:34;5.40;;;1.80;;
52102;SDS011;38101;53.126;6.878;2023-03-11T00:59:00;3.10;;;1.60;;
52102;SDS011;38101;53.126;6.878;2023-03-11T01:01:26;5.95;;;1.73;;
52102;SDS011;38101;53.126;6.878;2023-03-11T01:03:51;5.47;;;2.00;;
52102;SDS011;38101;53.126;6.878;2023-03-11T01:06:17;4.90;;;1.63;;
52102;SDS011;38101;53.126;6.878;2023-03-11T01:08:43;6.32;;;2.00;;
52102;SDS011;38101;53.126;6.878;2023-03-11T01:11:09;3.53;;;1.30;;
52102;SDS011;38101;53.126;6.878;2023-03-11T01:13:34;3.72;;;1.67;;
52102;SDS011;38101;53.126;6.878;2023-03-11T01:16:00;2.95;;;1.25;;
52102;SDS011;38101;53.126;6.878;2023-03-11T01:18:27;5.10;;;1.83;;
52102;SDS011;38101;53.126;6.878;2023-03-11T01:20:53;6.15;;;1.30;;
52102;SDS011;38101;53.126;6.878;2023-03-11T01:23:19;3.42;;;1.17;;
52102;SDS011;38101;53.126;6.878;2023-03-11T01:25:45;5.43;;;1.42;;
52102;SDS011;38101;53.126;6.878;2023-03-11T01:28:11;3.88;;;1.48;;
52102;SDS011;38101;53.126;6.878;2023-03-11T01:30:38;3.33;;;1.10;;
52102;SDS011;38101;53.126;6.878;2023-03-11T01:33:06;4.50;;;1.60;;
52102;SDS011;38101;53.126;6.878;2023-03-11T01:35:37;4.18;;;1.25;;
52102;SDS011;38101;53.126;6.878;2023-03-11T01:38:04;2.53;;;1.10;;
52102;SDS011;38101;53.126;6.878;2023-03-11T01:40:31;4.18;;;1.35;;
52102;SDS011;38101;53.126;6.878;2023-03-11T01:43:00;5.57;;;1.63;;
52102;SDS011;38101;53.126;6.878;2023-03-11T01:45:40;2.63;;;1.08;;
52102;SDS011;38101;53.126;6.878;2023-03-11T01:48:27;3.03;;;1.50;;
52102;SDS011;38101;53.126;6.878;2023-03-11T01:50:54;4.40;;;1.42;;
52102;SDS011;38101;53.126;6.878;2023-03-11T01:53:21;3.05;;;1.25;;
52102;SDS011;38101;53.126;6.878;2023-03-11T01:55:48;5.28;;;1.42;;
52102;SDS011;38101;53.126;6.878;2023-03-11T01:58:16;4.53;;;1.25;;
52102;SDS011;38101;53.126;6.878;2023-03-11T02:00:45;3.88;;;1.45;;
52102;SDS011;38101;53.126;6.878;2023-03-11T02:03:18;3.50;;;1.50;;
52102;SDS011;38101;53.126;6.878;2023-03-11T02:05:50;5.75;;;1.58;;
52102;SDS011;38101;53.126;6.878;2023-03-11T02:08:17;3.65;;;1.75;;
52102;SDS011;38101;53.126;6.878;2023-03-11T02:10:43;3.08;;;1.48;;
52102;SDS011;38101;53.126;6.878;2023-03-11T02:13:10;3.80;;;1.23;;
52102;SDS011;38101;53.126;6.878;2023-03-11T02:15:36;4.00;;;1.48;;
52102;SDS011;38101;53.126;6.878;2023-03-11T02:18:04;4.47;;;1.60;;
52102;SDS011;38101;53.126;6.878;2023-03-11T02:23:22;2.42;;;1.15;;
52102;SDS011;38101;53.126;6.878;2023-03-11T02:28:54;5.43;;;1.70;;
52102;SDS011;38101;53.126;6.878;2023-03-11T02:31:21;3.17;;;1.15;;
52102;SDS011;38101;53.126;6.878;2023-03-11T02:33:49;2.65;;;1.20;;
52102;SDS011;38101;53.126;6.878;2023-03-11T02:36:35;3.08;;;1.50;;
52102;SDS011;38101;53.126;6.878;2023-03-11T02:39:04;3.80;;;1.40;;
52102;SDS011;38101;53.126;6.878;2023-03-11T02:41:31;3.33;;;1.42;;
52102;SDS011;38101;53.126;6.878;2023-03-11T02:43:59;2.60;;;1.20;;
52102;SDS011;38101;53.126;6.878;2023-03-11T02:46:27;5.30;;;1.65;;
52102;SDS011;38101;53.126;6.878;2023-03-11T02:48:52;4.32;;;1.30;;
52102;SDS011;38101;53.126;6.878;2023-03-11T02:51:20;5.05;;;1.85;;
52102;SDS011;38101;53.126;6.878;2023-03-11T02:53:49;3.65;;;1.38;;
52102;SDS011;38101;53.126;6.878;2023-03-11T02:56:17;4.50;;;1.52;;
52102;SDS011;38101;53.126;6.878;2023-03-11T02:58:42;3.30;;;1.50;;
52102;SDS011;38101;53.126;6.878;2023-03-11T03:01:08;4.70;;;1.48;;
52102;SDS011;38101;53.126;6.878;2023-03-11T03:03:35;3.78;;;1.20;;
52102;SDS011;38101;53.126;6.878;2023-03-11T03:06:01;2.58;;;1.13;;
52102;SDS011;38101;53.126;6.878;2023-03-11T03:08:27;4.43;;;1.38;;
52102;SDS011;38101;53.126;6.878;2023-03-11T03:10:52;3.45;;;1.17;;
52102;SDS011;38101;53.126;6.878;2023-03-11T03:13:18;3.75;;;0.88;;
52102;SDS011;38101;53.126;6.878;2023-03-11T03:15:44;4.40;;;1.10;;
52102;SDS011;38101;53.126;6.878;2023-03-11T03:18:10;2.60;;;1.10;;
52102;SDS011;38101;53.126;6.878;2023-03-11T03:20:35;3.85;;;1.30;;
52102;SDS011;38101;53.126;6.878;2023-03-11T03:23:01;4.00;;;1.10;;
52102;SDS011;38101;53.126;6.878;2023-03-11T03:25:27;2.95;;;1.27;;
52102;SDS011;38101;53.126;6.878;2023-03-11T03:27:53;3.30;;;1.17;;
52102;SDS011;38101;53.126;6.878;2023-03-11T03:30:19;3.17;;;1.30;;
52102;SDS011;38101;53.126;6.878;2023-03-11T03:32:45;3.00;;;0.90;;
52102;SDS011;38101;53.126;6.878;2023-03-11T03:35:11;5.80;;;1.42;;
52102;SDS011;38101;53.126;6.878;2023-03-11T03:37:37;2.63;;;1.25;;
52102;SDS011;38101;53.126;6.878;2023-03-11T03:40:03;4.28;;;1.20;;
52102;SDS011;38101;53.126;6.878;2023-03-11T03:42:34;3.08;;;1.20;;
52102;SDS011;38101;53.126;6.878;2023-03-11T03:45:01;4.00;;;1.35;;
52102;SDS011;38101;53.126;6.878;2023-03-11T03:47:28;3.25;;;1.25;;
52102;SDS011;38101;53.126;6.878;2023-03-11T03:49:54;2.95;;;1.23;;
52102;SDS011;38101;53.126;6.878;2023-03-11T03:52:19;3.38;;;0.98;;
52102;SDS011;38101;53.126;6.878;2023-03-11T03:54:45;4.00;;;1.25;;
52102;SDS011;38101;53.126;6.878;2023-03-11T03:57:11;2.70;;;1.13;;
52102;SDS011;38101;53.126;6.878;2023-03-11T03:59:37;2.35;;;1.10;;
52102;SDS011;38101;53.126;6.878;2023-03-11T04:02:02;2.72;;;1.30;;
52102;SDS011;38101;53.126;6.878;2023-03-11T04:04:28;2.65;;;1.33;;
52102;SDS011;38101;53.126;6.878;2023-03-11T04:06:54;3.97;;;1.52;;
52102;SDS011;38101;53.126;6.878;2023-03-11T04:09:20;1.88;;;0.80;;
52102;SDS011;38101;53.126;6.878;2023-03-11T04:11:46;2.47;;;1.17;;
52102;SDS011;38101;53.126;6.878;2023-03-11T04:14:12;2.78;;;1.20;;
52102;SDS011;38101;53.126;6.878;2023-03-11T04:16:38;3.58;;;1.20;;
52102;SDS011;38101;53.126;6.878;2023-03-11T04:19:04;3.10;;;1.40;;
52102;SDS011;38101;53.126;6.878;2023-03-11T04:21:30;3.22;;;1.20;;
52102;SDS011;38101;53.126;6.878;2023-03-11T04:23:57;5.43;;;1.20;;
52102;SDS011;38101;53.126;6.878;2023-03-11T04:26:23;3.58;;;1.30;;
52102;SDS011;38101;53.126;6.878;2023-03-11T04:28:49;5.55;;;1.27;;
52102;SDS011;38101;53.126;6.878;2023-03-11T04:31:14;3.22;;;1.33;;
52102;SDS011;38101;53.126;6.878;2023-03-11T04:33:41;6.60;;;1.60;;
52102;SDS011;38101;53.126;6.878;2023-03-11T04:36:07;1.67;;;1.10;;
52102;SDS011;38101;53.126;6.878;2023-03-11T04:38:34;3.10;;;1.02;;
52102;SDS011;38101;53.126;6.878;2023-03-11T04:41:00;2.50;;;1.30;;
52102;SDS011;38101;53.126;6.878;2023-03-11T04:43:26;4.75;;;1.70;;
52102;SDS011;38101;53.126;6.878;2023-03-11T04:45:52;2.60;;;1.50;;
52102;SDS011;38101;53.126;6.878;2023-03-11T04:48:18;3.88;;;1.45;;
52102;SDS011;38101;53.126;6.878;2023-03-11T04:50:44;3.60;;;1.40;;
52102;SDS011;38101;53.126;6.878;2023-03-11T04:53:10;2.65;;;1.40;;
52102;SDS011;38101;53.126;6.878;2023-03-11T04:55:36;3.20;;;1.60;;
52102;SDS011;38101;53.126;6.878;2023-03-11T04:58:01;4.28;;;1.35;;
52102;SDS011;38101;53.126;6.878;2023-03-11T05:00:27;2.97;;;1.60;;
52102;SDS011;38101;53.126;6.878;2023-03-11T05:02:53;3.78;;;1.60;;
52102;SDS011;38101;53.126;6.878;2023-03-11T05:05:19;3.42;;;1.50;;
52102;SDS011;38101;53.126;6.878;2023-03-11T05:07:44;2.92;;;1.48;;
52102;SDS011;38101;53.126;6.878;2023-03-11T05:10:11;3.47;;;1.42;;
52102;SDS011;38101;53.126;6.878;2023-03-11T05:12:37;2.08;;;1.38;;
52102;SDS011;38101;53.126;6.878;2023-03-11T05:15:03;3.83;;;1.95;;
52102;SDS011;38101;53.126;6.878;2023-03-11T05:17:29;2.72;;;1.55;;
52102;SDS011;38101;53.126;6.878;2023-03-11T05:19:55;4.07;;;1.58;;
52102;SDS011;38101;53.126;6.878;2023-03-11T05:22:21;2.05;;;1.20;;
52102;SDS011;38101;53.126;6.878;2023-03-11T05:24:47;2.75;;;1.35;;
52102;SDS011;38101;53.126;6.878;2023-03-11T05:27:14;2.30;;;1.17;;
52102;SDS011;38101;53.126;6.878;2023-03-11T05:29:42;5.25;;;1.67;;
52102;SDS011;38101;53.126;6.878;2023-03-11T05:32:09;6.82;;;1.65;;
52102;SDS011;38101;53.126;6.878;2023-03-11T05:34:36;4.65;;;1.58;;
52102;SDS011;38101;53.126;6.878;2023-03-11T05:37:02;3.65;;;1.50;;
52102;SDS011;38101;53.126;6.878;2023-03-11T05:39:28;5.00;;;1.60;;
52102;SDS011;38101;53.126;6.878;2023-03-11T05:41:54;5.40;;;1.58;;
52102;SDS011;38101;53.126;6.878;2023-03-11T05:44:22;4.35;;;1.60;;
52102;SDS011;38101;53.126;6.878;2023-03-11T05:46:48;4.10;;;1.40;;
52102;SDS011;38101;53.126;6.878;2023-03-11T05:49:14;3.40;;;1.30;;
52102;SDS011;38101;53.126;6.878;2023-03-11T05:51:39;3.47;;;1.30;;
52102;SDS011;38101;53.126;6.878;2023-03-11T05:54:05;4.40;;;1.60;;
52102;SDS011;38101;53.126;6.878;2023-03-11T05:56:39;3.33;;;1.70;;
52102;SDS011;38101;53.126;6.878;2023-03-11T05:59:05;4.82;;;1.50;;
52102;SDS011;38101;53.126;6.878;2023-03-11T06:01:32;2.47;;;1.40;;
52102;SDS011;38101;53.126;6.878;2023-03-11T06:03:58;4.15;;;1.40;;
52102;SDS011;38101;53.126;6.878;2023-03-11T06:06:24;6.95;;;1.83;;
52102;SDS011;38101;53.126;6.878;2023-03-11T06:08:50;3.88;;;1.45;;
52102;SDS011;38101;53.126;6.878;2023-03-11T06:11:16;6.07;;;2.35;;
52102;SDS011;38101;53.126;6.878;2023-03-11T06:13:42;5.32;;;3.95;;
52102;SDS011;38101;53.126;6.878;2023-03-11T06:16:08;5.75;;;4.53;;
52102;SDS011;38101;53.126;6.878;2023-03-11T06:18:34;5.13;;;3.58;;
52102;SDS011;38101;53.126;6.878;2023-03-11T06:21:00;4.95;;;2.30;;
52102;SDS011;38101;53.126;6.878;2023-03-11T06:23:27;5.00;;;3.30;;
52102;SDS011;38101;53.126;6.878;2023-03-11T06:25:54;6.97;;;2.83;;
52102;SDS011;38101;53.126;6.878;2023-03-11T06:28:24;5.38;;;2.33;;
52102;SDS011;38101;53.126;6.878;2023-03-11T06:30:50;5.75;;;2.88;;
52102;SDS011;38101;53.126;6.878;2023-03-11T06:33:16;3.45;;;2.60;;
52102;SDS011;38101;53.126;6.878;2023-03-11T06:35:42;3.28;;;2.40;;
52102;SDS011;38101;53.126;6.878;2023-03-11T06:38:07;3.63;;;1.88;;
52102;SDS011;38101;53.126;6.878;2023-03-11T06:40:35;4.28;;;2.33;;
52102;SDS011;38101;53.126;6.878;2023-03-11T06:43:01;5.38;;;1.80;;
52102;SDS011;38101;53.126;6.878;2023-03-11T06:45:27;3.00;;;1.52;;
52102;SDS011;38101;53.126;6.878;2023-03-11T06:47:52;3.85;;;1.83;;
52102;SDS011;38101;53.126;6.878;2023-03-11T06:50:18;2.70;;;1.50;;
52102;SDS011;38101;53.126;6.878;2023-03-11T06:52:44;3.55;;;1.70;;
52102;SDS011;38101;53.126;6.878;2023-03-11T06:55:10;6.47;;;2.53;;
52102;SDS011;38101;53.126;6.878;2023-03-11T06:57:35;7.57;;;2.67;;
52102;SDS011;38101;53.126;6.878;2023-03-11T07:00:01;5.68;;;2.70;;
52102;SDS011;38101;53.126;6.878;2023-03-11T07:02:30;3.60;;;2.20;;
52102;SDS011;38101;53.126;6.878;2023-03-11T07:04:56;4.32;;;2.38;;
52102;SDS011;38101;53.126;6.878;2023-03-11T07:07:21;3.13;;;2.10;;
52102;SDS011;38101;53.126;6.878;2023-03-11T07:09:47;5.07;;;2.45;;
52102;SDS011;38101;53.126;6.878;2023-03-11T07:12:13;5.18;;;2.20;;
52102;SDS011;38101;53.126;6.878;2023-03-11T07:14:39;5.70;;;2.28;;
52102;SDS011;38101;53.126;6.878;2023-03-11T07:17:05;4.32;;;2.00;;
52102;SDS011;38101;53.126;6.878;2023-03-11T07:19:31;3.08;;;1.95;;
52102;SDS011;38101;53.126;6.878;2023-03-11T07:21:56;4.47;;;2.03;;
52102;SDS011;38101;53.126;6.878;2023-03-11T07:24:22;5.03;;;2.00;;
52102;SDS011;38101;53.126;6.878;2023-03-11T07:26:48;5.45;;;2.10;;
52102;SDS011;38101;53.126;6.878;2023-03-11T07:29:14;3.90;;;2.00;;
52102;SDS011;38101;53.126;6.878;2023-03-11T07:31:39;3.08;;;1.90;;
52102;SDS011;38101;53.126;6.878;2023-03-11T07:34:06;4.00;;;2.10;;
52102;SDS011;38101;53.126;6.878;2023-03-11T07:36:35;2.90;;;1.77;;
52102;SDS011;38101;53.126;6.878;2023-03-11T07:39:04;4.68;;;1.75;;
52102;SDS011;38101;53.126;6.878;2023-03-11T07:41:30;3.00;;;1.77;;
52102;SDS011;38101;53.126;6.878;2023-03-11T07:43:58;3.72;;;1.60;;
52102;SDS011;38101;53.126;6.878;2023-03-11T07:46:26;3.95;;;1.55;;
52102;SDS011;38101;53.126;6.878;2023-03-11T07:48:52;8.05;;;2.40;;
52102;SDS011;38101;53.126;6.878;2023-03-11T07:51:22;5.38;;;2.08;;
52102;SDS011;38101;53.126;6.878;2023-03-11T07:53:53;4.28;;;1.80;;
52102;SDS011;38101;53.126;6.878;2023-03-11T07:56:21;6.53;;;2.30;;
52102;SDS011;38101;53.126;6.878;2023-03-11T07:58:50;4.10;;;1.48;;
52102;SDS011;38101;53.126;6.878;2023-03-11T08:01:17;5.95;;;2.05;;
52102;SDS011;38101;53.126;6.878;2023-03-11T08:03:45;2.60;;;1.67;;
52102;SDS011;38101;53.126;6.878;2023-03-11T08:06:21;5.82;;;2.17;;
52102;SDS011;38101;53.126;6.878;2023-03-11T08:08:49;6.05;;;2.05;;
52102;SDS011;38101;53.126;6.878;2023-03-11T08:11:16;4.05;;;2.30;;
52102;SDS011;38101;53.126;6.878;2023-03-11T08:13:43;3.40;;;1.92;;
52102;SDS011;38101;53.126;6.878;2023-03-11T08:16:11;4.75;;;1.90;;
52102;SDS011;38101;53.126;6.878;2023-03-11T08:18:39;6.50;;;1.90;;
52102;SDS011;38101;53.126;6.878;2023-03-11T08:21:09;4.55;;;2.00;;
52102;SDS011;38101;53.126;6.878;2023-03-11T08:23:37;4.82;;;2.00;;
52102;SDS011;38101;53.126;6.878;2023-03-11T08:26:09;5.20;;;1.85;;
52102;SDS011;38101;53.126;6.878;2023-03-11T08:28:37;5.00;;;2.30;;
52102;SDS011;38101;53.126;6.878;2023-03-11T08:31:02;3.88;;;1.70;;
52102;SDS011;38101;53.126;6.878;2023-03-11T08:33:36;5.60;;;1.88;;
52102;SDS011;38101;53.126;6.878;2023-03-11T08:36:01;4.95;;;2.13;;
52102;SDS011;38101;53.126;6.878;2023-03-11T08:38:27;5.93;;;2.10;;
52102;SDS011;38101;53.126;6.878;2023-03-11T08:40:53;4.78;;;2.03;;
52102;SDS011;38101;53.126;6.878;2023-03-11T08:43:18;4.25;;;1.95;;
52102;SDS011;38101;53.126;6.878;2023-03-11T08:45:44;3.85;;;2.20;;
52102;SDS011;38101;53.126;6.878;2023-03-11T08:48:10;4.72;;;2.45;;
52102;SDS011;38101;53.126;6.878;2023-03-11T08:50:38;5.78;;;1.95;;
52102;SDS011;38101;53.126;6.878;2023-03-11T08:53:05;2.97;;;1.98;;
52102;SDS011;38101;53.126;6.878;2023-03-11T08:55:31;3.80;;;1.70;;
52102;SDS011;38101;53.126;6.878;2023-03-11T08:57:56;5.75;;;2.10;;
52102;SDS011;38101;53.126;6.878;2023-03-11T09:00:22;5.90;;;2.13;;
52102;SDS011;38101;53.126;6.878;2023-03-11T09:02:48;4.40;;;1.65;;
52102;SDS011;38101;53.126;6.878;2023-03-11T09:05:14;4.22;;;1.67;;
52102;SDS011;38101;53.126;6.878;2023-03-11T09:07:40;7.00;;;2.17;;
52102;SDS011;38101;53.126;6.878;2023-03-11T09:10:06;6.15;;;2.20;;
52102;SDS011;38101;53.126;6.878;2023-03-11T09:12:32;5.45;;;1.65;;
52102;SDS011;38101;53.126;6.878;2023-03-11T09:14:57;4.03;;;2.03;;
52102;SDS011;38101;53.126;6.878;2023-03-11T09:17:23;5.13;;;1.90;;
52102;SDS011;38101;53.126;6.878;2023-03-11T09:19:49;6.93;;;2.03;;
52102;SDS011;38101;53.126;6.878;2023-03-11T09:22:15;3.72;;;1.70;;
52102;SDS011;38101;53.126;6.878;2023-03-11T09:24:40;4.70;;;2.05;;
52102;SDS011;38101;53.126;6.878;2023-03-11T09:27:06;4.90;;;2.00;;
52102;SDS011;38101;53.126;6.878;2023-03-11T09:29:32;5.95;;;2.00;;
52102;SDS011;38101;53.126;6.878;2023-03-11T09:31:58;6.63;;;2.03;;
52102;SDS011;38101;53.126;6.878;2023-03-11T09:34:23;3.42;;;1.90;;
52102;SDS011;38101;53.126;6.878;2023-03-11T09:36:49;6.47;;;1.98;;
52102;SDS011;38101;53.126;6.878;2023-03-11T09:39:15;4.72;;;1.98;;
52102;SDS011;38101;53.126;6.878;2023-03-11T09:41:57;5.03;;;1.90;;
52102;SDS011;38101;53.126;6.878;2023-03-11T09:44:35;3.25;;;1.85;;
52102;SDS011;38101;53.126;6.878;2023-03-11T09:50:07;6.00;;;2.20;;
52102;SDS011;38101;53.126;6.878;2023-03-11T09:53:00;3.78;;;1.80;;
52102;SDS011;38101;53.126;6.878;2023-03-11T09:55:32;5.88;;;1.88;;
52102;SDS011;38101;53.126;6.878;2023-03-11T09:58:02;6.35;;;2.30;;
52102;SDS011;38101;53.126;6.878;2023-03-11T10:00:41;6.90;;;2.10;;
52102;SDS011;38101;53.126;6.878;2023-03-11T10:03:13;4.45;;;2.03;;
52102;SDS011;38101;53.126;6.878;2023-03-11T10:05:55;6.70;;;2.22;;
52102;SDS011;38101;53.126;6.878;2023-03-11T10:08:29;7.50;;;2.10;;
52102;SDS011;38101;53.126;6.878;2023-03-11T10:16:26;6.20;;;2.72;;
52102;SDS011;38101;53.126;6.878;2023-03-11T10:19:20;6.82;;;2.53;;
52102;SDS011;38101;53.126;6.878;2023-03-11T10:21:56;5.68;;;2.20;;
52102;SDS011;38101;53.126;6.878;2023-03-11T10:24:34;7.13;;;2.40;;
52102;SDS011;38101;53.126;6.878;2023-03-11T10:27:20;4.70;;;2.20;;
52102;SDS011;38101;53.126;6.878;2023-03-11T10:30:02;7.05;;;2.35;;
52102;SDS011;38101;53.126;6.878;2023-03-11T10:35:15;6.28;;;2.10;;
52102;SDS011;38101;53.126;6.878;2023-03-11T10:37:43;4.55;;;1.98;;
52102;SDS011;38101;53.126;6.878;2023-03-11T10:40:29;6.90;;;2.77;;
52102;SDS011;38101;53.126;6.878;2023-03-11T10:42:58;5.95;;;2.42;;
52102;SDS011;38101;53.126;6.878;2023-03-11T10:45:28;5.57;;;1.90;;
52102;SDS011;38101;53.126;6.878;2023-03-11T10:48:01;4.05;;;2.03;;
52102;SDS011;38101;53.126;6.878;2023-03-11T10:50:26;8.15;;;2.53;;
52102;SDS011;38101;53.126;6.878;2023-03-11T10:53:08;5.43;;;2.28;;
52102;SDS011;38101;53.126;6.878;2023-03-11T10:55:44;5.53;;;2.15;;
52102;SDS011;38101;53.126;6.878;2023-03-11T10:58:12;4.78;;;2.00;;
52102;SDS011;38101;53.126;6.878;2023-03-11T11:00:41;6.35;;;2.13;;
52102;SDS011;38101;53.126;6.878;2023-03-11T11:03:22;4.10;;;2.22;;
52102;SDS011;38101;53.126;6.878;2023-03-11T11:05:59;4.50;;;2.03;;
52102;SDS011;38101;53.126;6.878;2023-03-11T11:08:27;4.18;;;2.10;;
52102;SDS011;38101;53.126;6.878;2023-03-11T11:10:58;4.50;;;2.20;;
52102;SDS011;38101;53.126;6.878;2023-03-11T11:13:27;6.03;;;2.20;;
52102;SDS011;38101;53.126;6.878;2023-03-11T11:15:59;4.28;;;2.17;;
52102;SDS011;38101;53.126;6.878;2023-03-11T11:18:41;4.55;;;1.90;;
52102;SDS011;38101;53.126;6.878;2023-03-11T11:21:30;6.50;;;2.10;;
52102;SDS011;38101;53.126;6.878;2023-03-11T11:24:26;5.78;;;2.20;;
52102;SDS011;38101;53.126;6.878;2023-03-11T11:27:04;8.25;;;2.45;;
52102;SDS011;38101;53.126;6.878;2023-03-11T11:29:36;4.40;;;2.03;;
52102;SDS011;38101;53.126;6.878;2023-03-11T11:34:52;6.10;;;2.30;;
52102;SDS011;38101;53.126;6.878;2023-03-11T11:37:23;4.68;;;1.98;;
52102;SDS011;38101;53.126;6.878;2023-03-11T11:40:18;7.78;;;3.00;;
52102;SDS011;38101;53.126;6.878;2023-03-11T11:42:48;6.43;;;2.60;;
52102;SDS011;38101;53.126;6.878;2023-03-11T11:45:23;4.95;;;2.65;;
52102;SDS011;38101;53.126;6.878;2023-03-11T11:48:04;4.40;;;2.38;;
52102;SDS011;38101;53.126;6.878;2023-03-11T11:50:55;6.20;;;2.85;;
52102;SDS011;38101;53.126;6.878;2023-03-11T11:53:29;4.45;;;2.33;;
52102;SDS011;38101;53.126;6.878;2023-03-11T11:56:08;5.95;;;2.65;;
52102;SDS011;38101;53.126;6.878;2023-03-11T11:58:34;4.95;;;2.40;;
52102;SDS011;38101;53.126;6.878;2023-03-11T12:01:06;6.53;;;2.55;;
52102;SDS011;38101;53.126;6.878;2023-03-11T12:03:55;5.30;;;2.25;;
52102;SDS011;38101;53.126;6.878;2023-03-11T12:12:29;7.43;;;2.53;;
52102;SDS011;38101;53.126;6.878;2023-03-11T12:17:54;8.38;;;2.30;;
52102;SDS011;38101;53.126;6.878;2023-03-11T12:23:24;3.15;;;1.70;;
52102;SDS011;38101;53.126;6.878;2023-03-11T12:28:55;5.10;;;1.83;;
52102;SDS011;38101;53.126;6.878;2023-03-11T12:31:29;5.45;;;2.10;;
52102;SDS011;38101;53.126;6.878;2023-03-11T12:34:03;4.53;;;1.92;;
52102;SDS011;38101;53.126;6.878;2023-03-11T12:36:35;3.58;;;2.03;;
52102;SDS011;38101;53.126;6.878;2023-03-11T12:39:05;4.13;;;1.73;;
52102;SDS011;38101;53.126;6.878;2023-03-11T12:41:43;3.92;;;1.92;;
52102;SDS011;38101;53.126;6.878;2023-03-11T12:44:22;5.95;;;1.80;;
52102;SDS011;38101;53.126;6.878;2023-03-11T12:49:24;3.50;;;1.55;;
52102;SDS011;38101;53.126;6.878;2023-03-11T12:57:33;6.30;;;1.90;;
52102;SDS011;38101;53.126;6.878;2023-03-11T13:08:08;3.67;;;1.70;;
52102;SDS011;38101;53.126;6.878;2023-03-11T13:15:50;5.18;;;1.60;;
52102;SDS011;38101;53.126;6.878;2023-03-11T13:18:26;3.47;;;1.90;;
52102;SDS011;38101;53.126;6.878;2023-03-11T13:21:01;4.15;;;1.70;;
52102;SDS011;38101;53.126;6.878;2023-03-11T13:23:37;4.25;;;1.98;;
52102;SDS011;38101;53.126;6.878;2023-03-11T13:26:08;5.40;;;1.75;;
52102;SDS011;38101;53.126;6.878;2023-03-11T13:31:48;4.57;;;2.00;;
52102;SDS011;38101;53.126;6.878;2023-03-11T13:34:33;2.88;;;1.65;;
52102;SDS011;38101;53.126;6.878;2023-03-11T13:37:22;1.48;;;1.17;;
52102;SDS011;38101;53.126;6.878;2023-03-11T13:42:50;4.07;;;1.58;;
52102;SDS011;38101;53.126;6.878;2023-03-11T13:47:56;3.35;;;1.55;;
52102;SDS011;38101;53.126;6.878;2023-03-11T13:50:33;3.58;;;1.40;;
52102;SDS011;38101;53.126;6.878;2023-03-11T13:53:05;2.20;;;1.27;;
52102;SDS011;38101;53.126;6.878;2023-03-11T13:55:37;1.58;;;1.13;;
52102;SDS011;38101;53.126;6.878;2023-03-11T14:00:39;2.92;;;1.40;;
52102;SDS011;38101;53.126;6.878;2023-03-11T14:03:21;4.32;;;1.65;;
52102;SDS011;38101;53.126;6.878;2023-03-11T14:05:57;5.22;;;1.80;;
52102;SDS011;38101;53.126;6.878;2023-03-11T14:08:33;2.47;;;1.42;;
52102;SDS011;38101;53.126;6.878;2023-03-11T14:11:01;3.03;;;1.55;;
52102;SDS011;38101;53.126;6.878;2023-03-11T14:13:41;4.05;;;1.65;;
52102;SDS011;38101;53.126;6.878;2023-03-11T14:16:21;6.65;;;1.83;;
52102;SDS011;38101;53.126;6.878;2023-03-11T14:19:02;4.63;;;1.90;;
52102;SDS011;38101;53.126;6.878;2023-03-11T14:21:28;3.95;;;1.70;;
52102;SDS011;38101;53.126;6.878;2023-03-11T14:23:56;3.47;;;1.60;;
52102;SDS011;38101;53.126;6.878;2023-03-11T14:28:55;3.88;;;1.40;;
52102;SDS011;38101;53.126;6.878;2023-03-11T14:31:33;3.55;;;1.38;;
52102;SDS011;38101;53.126;6.878;2023-03-11T14:34:12;6.15;;;2.25;;
52102;SDS011;38101;53.126;6.878;2023-03-11T14:39:46;4.18;;;1.85;;
52102;SDS011;38101;53.126;6.878;2023-03-11T14:42:15;3.72;;;1.38;;
52102;SDS011;38101;53.126;6.878;2023-03-11T14:50:26;4.72;;;1.70;;
52102;SDS011;38101;53.126;6.878;2023-03-11T14:52:58;7.45;;;1.67;;
52102;SDS011;38101;53.126;6.878;2023-03-11T14:55:28;3.58;;;1.50;;
52102;SDS011;38101;53.126;6.878;2023-03-11T14:58:40;4.47;;;1.63;;
52102;SDS011;38101;53.126;6.878;2023-03-11T15:00:54;3.40;;;1.50;;
52102;SDS011;38101;53.126;6.878;2023-03-11T15:03:27;4.38;;;1.55;;
52102;SDS011;38101;53.126;6.878;2023-03-11T15:05:58;5.10;;;2.08;;
52102;SDS011;38101;53.126;6.878;2023-03-11T15:08:29;5.45;;;1.80;;
52102;SDS011;38101;53.126;6.878;2023-03-11T15:11:00;3.00;;;1.38;;
52102;SDS011;38101;53.126;6.878;2023-03-11T15:13:31;2.75;;;1.50;;
52102;SDS011;38101;53.126;6.878;2023-03-11T15:16:02;5.10;;;1.77;;
52102;SDS011;38101;53.126;6.878;2023-03-11T15:18:32;3.53;;;1.60;;
52102;SDS011;38101;53.126;6.878;2023-03-11T15:21:14;4.18;;;1.45;;
52102;SDS011;38101;53.126;6.878;2023-03-11T15:24:02;3.78;;;1.23;;
52102;SDS011;38101;53.126;6.878;2023-03-11T15:26:34;4.05;;;1.55;;
52102;SDS011;38101;53.126;6.878;2023-03-11T15:29:23;3.17;;;1.40;;
52102;SDS011;38101;53.126;6.878;2023-03-11T15:31:48;4.63;;;1.55;;
52102;SDS011;38101;53.126;6.878;2023-03-11T15:36:44;3.95;;;1.42;;
52102;SDS011;38101;53.126;6.878;2023-03-11T15:39:55;5.30;;;1.60;;
52102;SDS011;38101;53.126;6.878;2023-03-11T15:42:22;2.60;;;1.40;;
52102;SDS011;38101;53.126;6.878;2023-03-11T15:44:59;5.78;;;1.85;;
52102;SDS011;38101;53.126;6.878;2023-03-11T15:47:45;4.25;;;1.95;;
52102;SDS011;38101;53.126;6.878;2023-03-11T15:50:19;4.30;;;1.88;;
52102;SDS011;38101;53.126;6.878;2023-03-11T15:52:48;4.88;;;1.60;;
52102;SDS011;38101;53.126;6.878;2023-03-11T15:55:16;4.63;;;1.77;;
52102;SDS011;38101;53.126;6.878;2023-03-11T15:57:44;2.95;;;1.65;;
52102;SDS011;38101;53.126;6.878;2023-03-11T16:00:22;4.80;;;1.40;;
52102;SDS011;38101;53.126;6.878;2023-03-11T16:02:49;3.63;;;1.40;;
52102;SDS011;38101;53.126;6.878;2023-03-11T16:05:16;3.50;;;1.30;;
52102;SDS011;38101;53.126;6.878;2023-03-11T16:07:44;3.30;;;1.45;;
52102;SDS011;38101;53.126;6.878;2023-03-11T16:10:11;4.45;;;1.33;;
52102;SDS011;38101;53.126;6.878;2023-03-11T16:12:38;3.25;;;1.50;;
52102;SDS011;38101;53.126;6.878;2023-03-11T16:15:09;5.00;;;2.50;;
52102;SDS011;38101;53.126;6.878;2023-03-11T16:18:06;3.95;;;1.80;;
52102;SDS011;38101;53.126;6.878;2023-03-11T16:23:18;2.10;;;1.05;;
52102;SDS011;38101;53.126;6.878;2023-03-11T16:25:46;3.42;;;1.10;;